Time;durP1;ratioP1;P1;durP2;ratioP2;P2;SDS_P1;SDS_P2;PMS_P1;PMS_P2;Temp;Humidity;BMP_temperature;BMP_pressure;BME280_temperature;BME280_humidity;BME280_pressure;Samples;Min_cycle;Max_cycle;Signal;HPM_P1;HPM_P2
2021/05/24 00:01:07;;;;;;;1.77;1.60;;;10.80;99.90;;;;;;5096368;28;20640;-51
2021/05/24 00:03:33;;;;;;;3.03;2.20;;;10.80;99.90;;;;;;5095334;28;20170;-49
2021/05/24 00:05:58;;;;;;;5.27;1.97;;;10.80;99.90;;;;;;5096122;28;20529;-48
2021/05/24 00:08:24;;;;;;;2.20;1.50;;;10.80;99.90;;;;;;5096156;28;20553;-51
2021/05/24 00:10:50;;;;;;;2.00;1.70;;;10.80;99.90;;;;;;5095320;28;20190;-47
2021/05/24 00:13:18;;;;;;;2.00;1.90;;;10.80;99.90;;;;;;5095807;28;20170;-45
2021/05/24 00:15:46;;;;;;;4.87;2.80;;;10.80;99.90;;;;;;5096316;28;20206;-49
2021/05/24 00:18:12;;;;;;;2.27;2.07;;;10.80;99.90;;;;;;5095241;28;20177;-48
2021/05/24 00:20:42;;;;;;;2.57;2.37;;;10.70;99.90;;;;;;5096490;28;20217;-54
2021/05/24 00:23:07;;;;;;;2.30;2.10;;;10.70;99.90;;;;;;5095772;28;20201;-48
2021/05/24 00:25:33;;;;;;;2.63;1.83;;;10.70;99.90;;;;;;5094934;28;20212;-49
2021/05/24 00:28:00;;;;;;;2.40;2.20;;;10.60;99.90;;;;;;5095893;28;20205;-47
2021/05/24 00:30:33;;;;;;;3.50;2.07;;;10.60;99.90;;;;;;5093932;28;20245;-49
2021/05/24 00:33:00;;;;;;;3.17;2.53;;;10.60;99.90;;;;;;5095762;28;20245;-54
2021/05/24 00:35:26;;;;;;;4.17;3.50;;;10.60;99.90;;;;;;5096105;28;20526;-47
2021/05/24 00:37:52;;;;;;;5.60;3.07;;;10.60;99.90;;;;;;5095991;28;20673;-54
2021/05/24 00:40:17;;;;;;;4.03;2.47;;;10.50;99.90;;;;;;5094816;28;20471;-45
2021/05/24 00:42:43;;;;;;;2.07;1.70;;;10.50;99.90;;;;;;5095626;28;20200;-48
2021/05/24 00:45:09;;;;;;;1.50;1.40;;;10.50;99.90;;;;;;5095749;28;20174;-49
2021/05/24 00:47:35;;;;;;;2.00;1.80;;;10.40;99.90;;;;;;5094797;28;20194;-49
2021/05/24 00:50:00;;;;;;;2.90;1.50;;;10.40;99.90;;;;;;5096025;28;20252;-46
2021/05/24 00:52:26;;;;;;;1.50;1.40;;;10.40;99.90;;;;;;5095178;28;20491;-55
2021/05/24 00:54:52;;;;;;;4.10;1.43;;;10.40;99.90;;;;;;5094912;28;20295;-53
2021/05/24 00:57:17;;;;;;;2.17;1.47;;;10.40;99.90;;;;;;5094859;28;20205;-50
2021/05/24 00:59:43;;;;;;;1.73;1.60;;;10.40;99.90;;;;;;5094450;28;20181;-54
2021/05/24 01:02:09;;;;;;;4.80;1.80;;;10.40;99.90;;;;;;5095061;28;20645;-50
2021/05/24 01:04:35;;;;;;;1.67;1.43;;;10.40;99.90;;;;;;5094112;28;20178;-47
2021/05/24 01:07:02;;;;;;;2.47;1.43;;;10.30;99.90;;;;;;5094798;28;20209;-46
2021/05/24 01:09:28;;;;;;;1.60;1.50;;;10.30;99.90;;;;;;5095266;28;20168;-46
2021/05/24 01:11:54;;;;;;;1.47;1.37;;;10.30;99.90;;;;;;5095010;28;20176;-51
2021/05/24 01:14:19;;;;;;;4.50;1.70;;;10.30;99.90;;;;;;5094497;28;20178;-49
2021/05/24 01:16:51;;;;;;;1.93;1.83;;;10.20;99.90;;;;;;5095528;28;20202;-50
2021/05/24 01:19:16;;;;;;;2.13;1.40;;;10.20;99.90;;;;;;5093808;28;20177;-47
2021/05/24 01:21:42;;;;;;;1.33;1.23;;;10.10;99.90;;;;;;5094659;28;20174;-50
2021/05/24 01:24:08;;;;;;;1.60;1.40;;;10.10;99.90;;;;;;5094936;28;20251;-47
2021/05/24 01:26:34;;;;;;;1.50;1.40;;;10.00;99.90;;;;;;5094362;28;20221;-53
2021/05/24 01:28:59;;;;;;;2.13;1.47;;;10.00;99.90;;;;;;5095299;28;20314;-46
2021/05/24 01:31:25;;;;;;;1.30;1.20;;;10.00;99.90;;;;;;5090944;28;20185;-46
2021/05/24 01:33:51;;;;;;;2.87;1.50;;;10.00;99.90;;;;;;5073557;28;20151;-47
2021/05/24 01:36:16;;;;;;;2.40;1.20;;;10.00;99.90;;;;;;5074030;28;20194;-46
2021/05/24 01:38:43;;;;;;;1.77;1.60;;;9.90;99.90;;;;;;5073408;28;20194;-53
2021/05/24 01:41:10;;;;;;;1.90;1.77;;;10.00;99.90;;;;;;5074067;28;20174;-46
2021/05/24 01:43:37;;;;;;;2.30;1.70;;;9.90;99.90;;;;;;5074007;28;20174;-54
2021/05/24 01:46:04;;;;;;;1.83;1.73;;;9.80;99.90;;;;;;5074280;28;20178;-56
2021/05/24 01:48:30;;;;;;;1.77;1.20;;;9.80;99.90;;;;;;5074581;28;20201;-48
2021/05/24 01:50:56;;;;;;;2.87;1.50;;;9.80;99.90;;;;;;5074186;28;20181;-48
2021/05/24 01:53:22;;;;;;;2.30;2.00;;;9.80;99.90;;;;;;5074728;28;20175;-47
2021/05/24 01:55:48;;;;;;;3.17;2.00;;;9.80;99.90;;;;;;5072884;28;20269;-48
2021/05/24 01:58:15;;;;;;;3.67;2.40;;;9.80;99.90;;;;;;5074526;28;20182;-48
2021/05/24 02:00:41;;;;;;;2.30;2.10;;;9.80;99.90;;;;;;5073359;28;20162;-52
2021/05/24 02:03:07;;;;;;;2.33;2.13;;;9.80;99.90;;;;;;5073604;28;20622;-45
2021/05/24 02:05:34;;;;;;;3.20;1.90;;;9.80;99.90;;;;;;5072550;28;20649;-48
2021/05/24 02:08:00;;;;;;;2.33;2.10;;;9.70;99.90;;;;;;5073668;28;20532;-46
2021/05/24 02:10:28;;;;;;;9.30;7.77;;;9.70;99.90;;;;;;5073572;28;20721;-48
2021/05/24 02:12:54;;;;;;;4.03;3.67;;;9.70;99.90;;;;;;5073107;28;20169;-50
2021/05/24 02:15:23;;;;;;;17.10;14.17;;;9.70;99.90;;;;;;5073879;28;20174;-53
2021/05/24 02:17:49;;;;;;;17.83;14.70;;;9.70;99.90;;;;;;5073558;28;20684;-53
2021/05/24 02:20:25;;;;;;;7.07;6.00;;;9.70;99.90;;;;;;5073728;28;20228;-49
2021/05/24 02:22:53;;;;;;;3.87;3.50;;;9.70;99.90;;;;;;5073844;28;20170;-48
2021/05/24 02:25:19;;;;;;;4.83;2.87;;;9.60;99.90;;;;;;5072439;28;20269;-46
2021/05/24 02:27:45;;;;;;;2.80;2.60;;;9.60;99.90;;;;;;5073871;28;20209;-49
2021/05/24 02:30:12;;;;;;;3.00;2.60;;;9.60;99.90;;;;;;5073056;28;20241;-49
2021/05/24 02:32:38;;;;;;;2.83;2.63;;;9.70;99.90;;;;;;5072997;28;20178;-51
2021/05/24 02:35:05;;;;;;;2.70;2.50;;;9.60;99.90;;;;;;5073948;28;20166;-49
2021/05/24 02:37:30;;;;;;;2.70;2.50;;;9.60;99.90;;;;;;5073457;28;20198;-47
2021/05/24 02:39:56;;;;;;;2.50;1.90;;;9.50;99.90;;;;;;5073646;28;20194;-50
2021/05/24 02:42:21;;;;;;;1.77;1.67;;;9.50;99.90;;;;;;5073359;28;20177;-48
2021/05/24 02:44:47;;;;;;;5.53;2.40;;;9.50;99.90;;;;;;5073651;28;20702;-46
2021/05/24 02:47:13;;;;;;;1.83;1.73;;;9.40;99.90;;;;;;5073981;28;20259;-47
2021/05/24 02:49:39;;;;;;;2.30;2.10;;;9.40;99.90;;;;;;5073443;28;20171;-50
2021/05/24 02:52:05;;;;;;;4.40;2.30;;;9.50;99.90;;;;;;5073338;28;20173;-53
2021/05/24 02:54:31;;;;;;;2.53;2.33;;;9.70;99.90;;;;;;5075570;28;20180;-48
2021/05/24 02:56:58;;;;;;;3.57;3.00;;;9.50;99.90;;;;;;5077226;28;20195;-46
2021/05/24 02:59:24;;;;;;;9.17;6.60;;;9.50;99.90;;;;;;5077882;28;20175;-48
2021/05/24 03:01:50;;;;;;;20.13;14.00;;;9.60;99.90;;;;;;5077049;28;20177;-45
2021/05/24 03:04:17;;;;;;;4.20;3.03;;;10.00;99.90;;;;;;5077095;28;20584;-47
2021/05/24 03:06:43;;;;;;;2.67;2.47;;;9.60;99.90;;;;;;5077371;28;20225;-48
2021/05/24 03:09:08;;;;;;;3.10;2.80;;;9.60;99.90;;;;;;5075963;28;20631;-52
2021/05/24 03:11:34;;;;;;;2.40;2.20;;;9.60;99.90;;;;;;5077189;28;20174;-46
2021/05/24 03:13:59;;;;;;;4.00;3.20;;;9.60;99.90;;;;;;5077529;28;20313;-52
2021/05/24 03:16:25;;;;;;;4.90;4.10;;;9.60;99.90;;;;;;5095579;28;20206;-49
2021/05/24 03:18:51;;;;;;;3.10;2.90;;;9.70;99.90;;;;;;5097309;28;20223;-46
2021/05/24 03:21:17;;;;;;;3.90;2.80;;;9.70;99.90;;;;;;5095637;28;20158;-48
2021/05/24 03:23:43;;;;;;;3.13;2.83;;;9.80;99.90;;;;;;5097055;28;20170;-51
2021/05/24 03:26:08;;;;;;;3.83;2.87;;;9.80;99.90;;;;;;5095547;28;20196;-50
2021/05/24 03:28:34;;;;;;;2.60;2.10;;;9.80;99.90;;;;;;5095050;28;20706;-46
2021/05/24 03:31:00;;;;;;;4.17;1.70;;;9.90;99.90;;;;;;5094571;28;20180;-50
2021/05/24 03:33:26;;;;;;;1.47;1.33;;;9.90;99.90;;;;;;5094707;28;20170;-48
2021/05/24 03:35:51;;;;;;;1.50;1.40;;;9.80;99.90;;;;;;5094650;28;20172;-51
2021/05/24 03:38:17;;;;;;;1.80;1.70;;;9.90;99.90;;;;;;5094517;28;20900;-48
2021/05/24 03:40:42;;;;;;;1.70;1.60;;;9.70;99.90;;;;;;5094777;28;20168;-51
2021/05/24 03:43:08;;;;;;;1.80;1.70;;;9.70;99.90;;;;;;5096054;28;20642;-52
2021/05/24 03:45:36;;;;;;;1.70;1.43;;;9.70;99.90;;;;;;5097309;28;20514;-46
2021/05/24 03:48:02;;;;;;;3.00;1.40;;;9.60;99.90;;;;;;5096828;28;20213;-46
2021/05/24 03:50:28;;;;;;;1.67;1.57;;;9.60;99.90;;;;;;5096935;28;20181;-53
2021/05/24 03:52:54;;;;;;;2.73;1.50;;;9.70;99.90;;;;;;5096921;28;20170;-47
2021/05/24 03:55:19;;;;;;;1.43;1.33;;;9.70;99.90;;;;;;5096625;28;20177;-50
2021/05/24 03:57:47;;;;;;;1.70;1.40;;;9.70;99.90;;;;;;5096873;28;20561;-49
2021/05/24 04:00:13;;;;;;;2.70;1.33;;;9.80;99.90;;;;;;5096164;28;20269;-52
2021/05/24 04:02:40;;;;;;;1.60;1.20;;;9.80;99.90;;;;;;5096498;28;20170;-47
2021/05/24 04:05:15;;;;;;;1.17;1.13;;;9.90;99.90;;;;;;5095671;28;20181;-49
2021/05/24 04:07:43;;;;;;;1.53;1.30;;;9.90;99.90;;;;;;5096703;28;20220;-49
2021/05/24 04:10:10;;;;;;;1.27;1.17;;;9.90;99.90;;;;;;5096535;28;20684;-49
2021/05/24 04:12:35;;;;;;;1.30;1.20;;;9.90;99.90;;;;;;5095917;28;20181;-47
2021/05/24 04:15:01;;;;;;;1.33;1.23;;;10.00;99.90;;;;;;5096326;28;20178;-52
2021/05/24 04:17:28;;;;;;;2.00;1.20;;;10.00;99.90;;;;;;5096315;28;20242;-51
2021/05/24 04:19:54;;;;;;;1.30;1.10;;;10.00;99.90;;;;;;5096539;28;20174;-47
2021/05/24 04:22:20;;;;;;;1.10;1.10;;;10.10;99.90;;;;;;5095872;28;20517;-49
2021/05/24 04:24:45;;;;;;;1.87;1.20;;;10.20;99.90;;;;;;5096810;28;20199;-49
2021/05/24 04:27:11;;;;;;;2.37;1.30;;;10.30;99.90;;;;;;5096006;28;20197;-50
2021/05/24 04:29:36;;;;;;;1.40;1.30;;;10.40;99.90;;;;;;5096124;28;20254;-54
2021/05/24 04:32:02;;;;;;;1.00;0.90;;;10.40;99.90;;;;;;5095854;28;20178;-49
2021/05/24 04:34:28;;;;;;;1.47;0.93;;;10.40;99.90;;;;;;5095623;28;20174;-51
2021/05/24 04:36:53;;;;;;;1.07;1.07;;;10.50;99.90;;;;;;5095470;28;20193;-47
2021/05/24 04:39:19;;;;;;;2.50;1.10;;;10.50;99.90;;;;;;5095621;28;20197;-48
2021/05/24 04:41:44;;;;;;;3.17;1.30;;;10.60;99.90;;;;;;5095569;28;20633;-49
2021/05/24 04:44:19;;;;;;;1.27;1.17;;;10.70;99.90;;;;;;5096029;28;20237;-51
2021/05/24 04:46:48;;;;;;;2.20;1.10;;;10.70;99.90;;;;;;5095774;28;20604;-46
2021/05/24 04:49:14;;;;;;;1.13;1.03;;;10.80;99.90;;;;;;5095875;28;20209;-51
2021/05/24 04:51:39;;;;;;;1.10;1.07;;;10.80;99.90;;;;;;5095537;28;20193;-54
2021/05/24 04:54:06;;;;;;;1.27;1.10;;;10.80;99.90;;;;;;5095222;28;20178;-46
2021/05/24 04:56:33;;;;;;;1.73;1.00;;;10.80;99.90;;;;;;5095328;28;20197;-46
2021/05/24 04:58:59;;;;;;;1.20;1.03;;;10.80;99.90;;;;;;5095586;28;20302;-49
2021/05/24 05:01:24;;;;;;;1.23;1.13;;;10.80;99.90;;;;;;5095177;28;20211;-49
2021/05/24 05:03:50;;;;;;;2.33;1.33;;;10.80;99.90;;;;;;5095164;28;20170;-50
2021/05/24 05:06:15;;;;;;;1.70;1.33;;;10.80;99.90;;;;;;5095702;28;20189;-47
2021/05/24 05:08:41;;;;;;;1.57;1.40;;;10.80;99.90;;;;;;5095405;28;20611;-55
2021/05/24 05:11:06;;;;;;;2.10;1.30;;;11.00;99.90;;;;;;5094704;28;20180;-48
2021/05/24 05:13:32;;;;;;;1.10;1.00;;;10.90;99.90;;;;;;5094821;28;20178;-46
2021/05/24 05:15:57;;;;;;;1.20;0.97;;;10.90;99.90;;;;;;5094806;28;20170;-46
2021/05/24 05:18:23;;;;;;;0.97;0.90;;;11.10;99.90;;;;;;5094555;28;20209;-49
2021/05/24 05:20:48;;;;;;;1.10;1.00;;;11.10;99.90;;;;;;5095625;28;20173;-50
2021/05/24 05:23:14;;;;;;;2.07;0.97;;;11.20;99.90;;;;;;5095279;28;20173;-50
2021/05/24 05:25:39;;;;;;;1.13;0.90;;;11.20;99.90;;;;;;5094630;28;20634;-55
2021/05/24 05:28:07;;;;;;;1.50;0.90;;;11.20;99.90;;;;;;5094812;28;20244;-49
2021/05/24 05:30:32;;;;;;;1.80;0.90;;;11.30;99.90;;;;;;5095225;28;20162;-46
2021/05/24 05:32:58;;;;;;;1.53;0.73;;;11.30;99.90;;;;;;5094460;28;20185;-49
2021/05/24 05:35:23;;;;;;;0.80;0.70;;;11.30;99.90;;;;;;5094695;28;20284;-50
2021/05/24 05:37:51;;;;;;;1.37;0.77;;;11.30;99.90;;;;;;5094857;28;20214;-46
2021/05/24 05:40:18;;;;;;;0.80;0.80;;;11.30;99.90;;;;;;5094630;28;20157;-55
2021/05/24 05:42:48;;;;;;;0.90;0.80;;;11.40;99.90;;;;;;5094647;28;20185;-46
2021/05/24 05:45:14;;;;;;;1.67;0.73;;;11.50;99.90;;;;;;5094703;28;20180;-48
2021/05/24 05:47:40;;;;;;;0.80;0.70;;;11.50;99.90;;;;;;5094539;28;20193;-51
2021/05/24 05:50:07;;;;;;;0.80;0.70;;;11.50;99.90;;;;;;5094498;28;20184;-50
2021/05/24 05:52:34;;;;;;;1.73;0.60;;;11.50;99.90;;;;;;5093944;28;20169;-48
2021/05/24 05:55:00;;;;;;;0.60;0.60;;;11.60;99.90;;;;;;5094373;28;20166;-46
2021/05/24 05:57:26;;;;;;;0.60;0.60;;;11.80;99.90;;;;;;5094745;28;20189;-53
2021/05/24 05:59:52;;;;;;;0.87;0.60;;;11.80;99.90;;;;;;5094487;28;20174;-51
2021/05/24 06:02:18;;;;;;;1.00;0.90;;;11.90;99.90;;;;;;5094068;28;20262;-45
2021/05/24 06:04:44;;;;;;;1.17;0.90;;;12.10;99.90;;;;;;5089214;28;20214;-46
2021/05/24 06:07:09;;;;;;;0.80;0.80;;;12.20;99.90;;;;;;5073623;28;20194;-45
2021/05/24 06:09:35;;;;;;;1.50;0.80;;;12.30;99.90;;;;;;5073912;28;20543;-53
2021/05/24 06:12:01;;;;;;;0.80;0.80;;;12.40;99.90;;;;;;5073716;28;20177;-52
2021/05/24 06:14:26;;;;;;;1.47;0.80;;;12.50;99.90;;;;;;5074134;28;20170;-55
2021/05/24 06:16:52;;;;;;;1.20;1.00;;;12.60;99.90;;;;;;5073917;28;20208;-55
2021/05/24 06:19:17;;;;;;;1.73;0.80;;;12.60;99.90;;;;;;5074582;28;20178;-49
2021/05/24 06:21:43;;;;;;;0.83;0.70;;;12.70;99.90;;;;;;5073933;28;20182;-50
2021/05/24 06:24:09;;;;;;;0.50;0.50;;;12.70;99.90;;;;;;5073842;28;20182;-47
2021/05/24 06:26:35;;;;;;;0.60;0.60;;;12.80;99.90;;;;;;5073680;28;20191;-48
2021/05/24 06:29:01;;;;;;;1.80;0.63;;;12.80;99.90;;;;;;5075139;28;20235;-48
2021/05/24 06:31:26;;;;;;;0.60;0.50;;;12.80;99.90;;;;;;5078149;28;20209;-49
2021/05/24 06:33:52;;;;;;;0.87;0.63;;;13.00;99.90;;;;;;5077924;28;20170;-55
2021/05/24 06:36:17;;;;;;;0.97;0.87;;;13.20;99.90;;;;;;5078091;28;20201;-47
2021/05/24 06:38:43;;;;;;;0.90;0.67;;;13.30;99.90;;;;;;5077756;28;20194;-48
2021/05/24 06:41:08;;;;;;;1.90;0.50;;;13.30;99.90;;;;;;5077678;28;20174;-50
2021/05/24 06:43:34;;;;;;;3.73;0.63;;;13.40;99.90;;;;;;5077946;28;20171;-47
2021/05/24 06:46:00;;;;;;;0.83;0.67;;;13.50;99.90;;;;;;5078240;28;20182;-51
2021/05/24 06:48:25;;;;;;;0.77;0.77;;;13.60;99.90;;;;;;5077973;28;20211;-53
2021/05/24 06:50:51;;;;;;;2.80;0.90;;;13.80;99.90;;;;;;5077985;28;20162;-58
2021/05/24 06:53:17;;;;;;;1.20;0.90;;;13.90;99.90;;;;;;5076931;28;20258;-47
2021/05/24 06:55:42;;;;;;;1.60;0.60;;;14.00;99.90;;;;;;5077253;28;20164;-50
2021/05/24 06:58:08;;;;;;;1.83;0.73;;;14.00;99.90;;;;;;5077708;28;20194;-49
2021/05/24 07:00:33;;;;;;;1.53;1.00;;;14.00;99.90;;;;;;5077856;28;20172;-53
2021/05/24 07:02:59;;;;;;;0.57;0.57;;;13.90;99.90;;;;;;5077795;28;20263;-51
2021/05/24 07:05:25;;;;;;;0.50;0.50;;;13.90;99.90;;;;;;5077206;28;20179;-50
2021/05/24 07:07:50;;;;;;;0.53;0.53;;;13.90;99.90;;;;;;5077662;28;20215;-48
2021/05/24 07:10:16;;;;;;;2.90;0.70;;;13.80;99.90;;;;;;5077154;28;20173;-48
2021/05/24 07:12:41;;;;;;;0.40;0.40;;;13.80;99.90;;;;;;5076966;28;20168;-50
2021/05/24 07:15:07;;;;;;;2.63;0.77;;;13.90;99.90;;;;;;5077407;28;20669;-48
2021/05/24 07:17:33;;;;;;;0.70;0.60;;;13.90;99.90;;;;;;5077051;28;20211;-56
2021/05/24 07:19:59;;;;;;;1.27;0.67;;;13.90;99.90;;;;;;5075782;28;20581;-47
2021/05/24 07:22:25;;;;;;;0.87;0.60;;;13.90;99.90;;;;;;5076594;28;20207;-48
2021/05/24 07:24:53;;;;;;;0.70;0.70;;;13.90;99.90;;;;;;5076710;28;20176;-45
2021/05/24 07:27:19;;;;;;;1.07;0.60;;;13.80;99.90;;;;;;5076734;28;20239;-48
2021/05/24 07:29:44;;;;;;;0.60;0.60;;;13.90;99.90;;;;;;5077135;28;20208;-48
2021/05/24 07:32:10;;;;;;;0.40;0.40;;;14.10;99.90;;;;;;5076969;28;20185;-48
2021/05/24 07:34:39;;;;;;;0.63;0.60;;;14.20;99.90;;;;;;5076817;28;20184;-49
2021/05/24 07:37:06;;;;;;;4.63;0.63;;;14.30;99.90;;;;;;5076362;28;20190;-55
2021/05/24 07:39:32;;;;;;;0.70;0.67;;;14.50;99.90;;;;;;5076271;28;20197;-51
2021/05/24 07:42:00;;;;;;;0.53;0.53;;;14.60;99.90;;;;;;5076084;28;20190;-49
2021/05/24 07:44:29;;;;;;;0.50;0.50;;;14.60;99.90;;;;;;5076360;28;20275;-50
2021/05/24 07:46:59;;;;;;;0.73;0.50;;;14.70;99.90;;;;;;5076202;28;20199;-49
2021/05/24 07:49:24;;;;;;;0.67;0.50;;;14.70;99.90;;;;;;5076579;28;20261;-50
2021/05/24 07:51:50;;;;;;;0.53;0.30;;;14.80;99.90;;;;;;5076309;28;20555;-49
2021/05/24 07:54:17;;;;;;;1.10;0.60;;;15.00;99.90;;;;;;5076333;28;20624;-50
2021/05/24 07:56:43;;;;;;;0.50;0.40;;;15.10;99.90;;;;;;5074615;28;20236;-48
2021/05/24 07:59:09;;;;;;;0.50;0.50;;;15.10;99.90;;;;;;5076168;28;20171;-49
2021/05/24 08:01:35;;;;;;;2.27;0.60;;;15.10;99.90;;;;;;5075979;28;20595;-47
2021/05/24 08:04:01;;;;;;;1.43;0.50;;;16.30;99.90;;;;;;5074858;28;20175;-47
2021/05/24 08:06:26;;;;;;;0.40;0.40;;;15.20;99.90;;;;;;5076240;28;20217;-46
2021/05/24 08:08:52;;;;;;;1.33;0.60;;;15.20;99.90;;;;;;5075895;28;20285;-51
2021/05/24 08:11:17;;;;;;;2.53;0.60;;;15.20;99.90;;;;;;5074470;28;20226;-47
2021/05/24 08:13:43;;;;;;;3.13;0.60;;;15.20;99.90;;;;;;5076053;28;20174;-52
2021/05/24 08:16:13;;;;;;;1.43;0.47;;;15.40;99.90;;;;;;5075316;28;20201;-46
2021/05/24 08:18:43;;;;;;;0.90;0.57;;;15.50;99.90;;;;;;5076006;28;20186;-47
2021/05/24 08:21:09;;;;;;;1.90;0.50;;;15.50;99.90;;;;;;5076433;28;20278;-49
2021/05/24 08:23:35;;;;;;;0.40;0.40;;;15.60;99.90;;;;;;5075431;28;20192;-46
2021/05/24 08:26:01;;;;;;;0.70;0.40;;;15.70;99.90;;;;;;5075731;28;20174;-48
2021/05/24 08:28:27;;;;;;;0.93;0.57;;;15.90;99.90;;;;;;5075497;28;20220;-47
2021/05/24 08:30:54;;;;;;;0.90;0.60;;;16.20;99.90;;;;;;5075396;28;20249;-51
2021/05/24 08:33:21;;;;;;;0.80;0.53;;;16.20;99.90;;;;;;5075893;28;20167;-47
2021/05/24 08:35:50;;;;;;;0.83;0.60;;;16.50;99.90;;;;;;5075609;28;20188;-47
2021/05/24 08:38:15;;;;;;;0.67;0.50;;;16.60;99.90;;;;;;5075261;28;20190;-46
2021/05/24 08:40:43;;;;;;;0.73;0.60;;;16.80;99.90;;;;;;5074077;28;20219;-50
2021/05/24 08:43:10;;;;;;;0.63;0.30;;;16.80;99.90;;;;;;5075376;28;20241;-48
2021/05/24 08:45:37;;;;;;;0.40;0.40;;;16.80;99.90;;;;;;5074678;28;20182;-54
2021/05/24 08:48:05;;;;;;;2.43;0.60;;;16.90;99.90;;;;;;5075408;28;20211;-46
2021/05/24 08:50:30;;;;;;;0.40;0.40;;;16.90;99.90;;;;;;5075774;28;20256;-46
2021/05/24 08:52:56;;;;;;;0.63;0.50;;;16.90;99.90;;;;;;5074559;28;20205;-46
2021/05/24 08:55:22;;;;;;;1.17;0.50;;;17.10;99.90;;;;;;5075603;28;20175;-56
2021/05/24 08:57:47;;;;;;;0.60;0.40;;;17.40;99.90;;;;;;5075794;28;20539;-51
2021/05/24 09:00:15;;;;;;;0.83;0.40;;;17.50;99.90;;;;;;5075754;28;20179;-49
2021/05/24 09:02:52;;;;;;;0.40;0.37;;;17.70;99.90;;;;;;5074735;28;20565;-48
2021/05/24 09:05:18;;;;;;;0.30;0.30;;;17.90;99.90;;;;;;5075026;28;20183;-46
2021/05/24 09:07:53;;;;;;;0.60;0.53;;;18.00;99.90;;;;;;5074580;28;20198;-46
2021/05/24 09:10:23;;;;;;;1.63;0.50;;;18.10;99.90;;;;;;5074840;28;20231;-50
2021/05/24 09:12:49;;;;;;;0.37;0.37;;;18.00;99.90;;;;;;5074637;28;20205;-51
2021/05/24 09:15:16;;;;;;;0.57;0.47;;;18.20;99.90;;;;;;5074935;28;20219;-52
2021/05/24 09:17:46;;;;;;;2.13;0.53;;;18.00;99.90;;;;;;5075079;28;20199;-52
2021/05/24 09:20:27;;;;;;;0.40;0.40;;;17.70;99.90;;;;;;5074643;28;20511;-45
2021/05/24 09:23:16;;;;;;;1.80;0.70;;;17.40;99.90;;;;;;5074353;28;20178;-50
2021/05/24 09:26:03;;;;;;;0.40;0.40;;;17.60;99.90;;;;;;5075245;28;20206;-48
2021/05/24 09:28:39;;;;;;;0.47;0.47;;;17.80;99.90;;;;;;5095017;28;20276;-47
2021/05/24 09:31:25;;;;;;;0.33;0.30;;;17.90;99.90;;;;;;5094632;28;20169;-47
2021/05/24 09:34:00;;;;;;;0.63;0.57;;;18.00;99.90;;;;;;5094675;28;20556;-51
2021/05/24 09:36:28;;;;;;;0.47;0.47;;;18.00;99.90;;;;;;5094535;28;20669;-55
2021/05/24 09:39:01;;;;;;;0.97;0.40;;;18.20;99.90;;;;;;5094483;28;20251;-48
2021/05/24 09:41:26;;;;;;;0.30;0.30;;;18.20;99.90;;;;;;5094197;28;20170;-50
2021/05/24 09:43:54;;;;;;;0.87;0.60;;;18.10;99.90;;;;;;5094979;28;20166;-48
2021/05/24 09:46:28;;;;;;;0.33;0.33;;;18.00;99.90;;;;;;5093956;28;20196;-48
2021/05/24 09:49:01;;;;;;;1.30;0.43;;;17.90;99.90;;;;;;5094409;28;20209;-48
2021/05/24 09:51:32;;;;;;;0.70;0.60;;;17.90;99.90;;;;;;5094180;28;20154;-55
2021/05/24 09:53:59;;;;;;;2.10;0.70;;;17.90;99.90;;;;;;5094174;28;20178;-52
2021/05/24 09:56:25;;;;;;;0.67;0.60;;;18.00;99.90;;;;;;5094383;28;20189;-55
2021/05/24 09:59:09;;;;;;;0.47;0.47;;;18.00;99.90;;;;;;5094268;28;20170;-50
2021/05/24 10:01:40;;;;;;;10.50;6.73;;;17.90;99.90;;;;;;5094050;28;20182;-50
2021/05/24 10:04:08;;;;;;;3.10;1.87;;;17.80;99.90;;;;;;5094347;28;20509;-50
2021/05/24 10:06:35;;;;;;;1.77;0.80;;;17.90;99.90;;;;;;5092736;28;20193;-53
2021/05/24 10:09:02;;;;;;;0.93;0.67;;;18.00;99.90;;;;;;5093891;28;20669;-46
2021/05/24 10:11:29;;;;;;;0.60;0.60;;;18.00;99.90;;;;;;5093127;28;20256;-49
2021/05/24 10:13:55;;;;;;;3.03;0.80;;;17.90;99.90;;;;;;5094513;28;20181;-46
2021/05/24 10:16:23;;;;;;;1.90;1.23;;;17.80;99.90;;;;;;5094084;28;20215;-46
2021/05/24 10:18:49;;;;;;;0.60;0.57;;;17.90;99.90;;;;;;5094632;28;20166;-47
2021/05/24 10:21:14;;;;;;;0.60;0.60;;;17.90;99.90;;;;;;5093727;28;20645;-46
2021/05/24 10:23:40;;;;;;;0.50;0.43;;;17.90;99.90;;;;;;5094187;28;20626;-50
2021/05/24 10:26:09;;;;;;;1.20;0.70;;;17.90;99.90;;;;;;5093859;28;20201;-51
2021/05/24 10:28:36;;;;;;;1.97;1.70;;;18.00;99.90;;;;;;5093867;28;20202;-46
2021/05/24 10:31:02;;;;;;;3.27;2.20;;;17.90;99.90;;;;;;5093651;28;20526;-46
2021/05/24 10:33:42;;;;;;;1.63;1.07;;;17.90;99.90;;;;;;5093775;28;20648;-47
2021/05/24 10:36:29;;;;;;;1.23;0.80;;;18.00;99.90;;;;;;5093930;28;20197;-49
2021/05/24 10:39:20;;;;;;;2.43;1.97;;;18.20;99.90;;;;;;5079902;28;20206;-50
2021/05/24 10:41:56;;;;;;;2.57;1.20;;;18.40;99.90;;;;;;5073689;28;20533;-48
2021/05/24 10:44:39;;;;;;;1.73;1.60;;;18.60;99.90;;;;;;5073546;28;20177;-55
2021/05/24 10:47:16;;;;;;;5.90;4.20;;;18.80;99.90;;;;;;5073453;28;20599;-52
2021/05/24 10:50:04;;;;;;;1.40;1.30;;;19.00;99.90;;;;;;5073509;28;20181;-46
2021/05/24 10:52:38;;;;;;;1.63;1.30;;;19.10;99.90;;;;;;5083290;28;20741;-49
2021/05/24 10:55:25;;;;;;;4.57;3.10;;;19.40;99.90;;;;;;5093524;28;20577;-51
2021/05/24 10:57:56;;;;;;;2.47;2.20;;;19.60;99.90;;;;;;5087225;28;20210;-54
2021/05/24 11:00:23;;;;;;;1.97;1.20;;;19.70;99.90;;;;;;5078541;28;20182;-46
2021/05/24 11:02:53;;;;;;;1.43;1.07;;;19.60;99.90;;;;;;5093297;28;20634;-55
2021/05/24 11:05:25;;;;;;;1.47;0.90;;;19.80;99.90;;;;;;5093709;28;20182;-49
2021/05/24 11:07:55;;;;;;;1.23;0.70;;;19.80;99.90;;;;;;5092829;28;20255;-49
2021/05/24 11:10:22;;;;;;;1.43;1.00;;;19.70;99.90;;;;;;5091808;28;20182;-48
2021/05/24 11:12:54;;;;;;;0.87;0.77;;;19.70;99.90;;;;;;5091945;28;20186;-49
2021/05/24 11:15:40;;;;;;;1.67;0.60;;;19.90;99.90;;;;;;5093539;28;20177;-52
2021/05/24 11:18:05;;;;;;;3.13;0.87;;;19.90;99.90;;;;;;5093067;28;20748;-49
2021/05/24 11:20:51;;;;;;;1.70;0.70;;;19.90;99.90;;;;;;5095915;28;20332;-50
2021/05/24 11:26:18;;;;;;;0.93;0.60;;;19.90;99.90;;;;;;5097277;28;20244;-50
2021/05/24 11:28:51;;;;;;;2.13;0.67;;;19.60;99.90;;;;;;5096019;28;20194;-52
2021/05/24 11:31:21;;;;;;;1.80;1.00;;;19.70;99.90;;;;;;5097099;28;20178;-48
2021/05/24 11:33:48;;;;;;;0.90;0.70;;;19.70;99.90;;;;;;5097180;28;20166;-49
2021/05/24 11:36:42;;;;;;;0.70;0.60;;;19.60;99.90;;;;;;5097330;28;20194;-50
2021/05/24 11:39:15;;;;;;;0.67;0.53;;;19.70;99.90;;;;;;5096804;28;20270;-53
2021/05/24 11:41:55;;;;;;;0.77;0.70;;;19.70;99.90;;;;;;5096921;28;20166;-48
2021/05/24 11:44:22;;;;;;;0.87;0.63;;;19.60;99.80;;;;;;5097396;28;20236;-51
2021/05/24 11:46:58;;;;;;;1.00;0.60;;;19.60;99.90;;;;;;5096459;28;20190;-50
2021/05/24 11:49:38;;;;;;;0.93;0.73;;;19.50;99.90;;;;;;5096527;28;20158;-48
2021/05/24 11:52:06;;;;;;;1.80;0.83;;;19.50;99.90;;;;;;5096577;28;20173;-55
2021/05/24 11:54:33;;;;;;;1.23;0.80;;;19.80;99.90;;;;;;5096761;28;20170;-47
2021/05/24 11:57:02;;;;;;;2.53;1.00;;;20.00;99.90;;;;;;5096171;28;20193;-50
2021/05/24 11:59:29;;;;;;;1.30;0.80;;;20.20;99.90;;;;;;5096357;28;20174;-48
2021/05/24 12:01:57;;;;;;;0.60;0.60;;;20.30;99.90;;;;;;5096443;28;20198;-54
2021/05/24 12:04:28;;;;;;;0.80;0.63;;;20.10;99.90;;;;;;5096968;28;20190;-48
2021/05/24 12:07:01;;;;;;;1.00;1.00;;;20.00;99.90;;;;;;5096355;28;20197;-55
2021/05/24 12:09:36;;;;;;;1.37;0.87;;;20.10;99.90;;;;;;5092963;28;20177;-57
2021/05/24 12:12:05;;;;;;;1.10;0.93;;;20.20;99.90;;;;;;5090933;28;20166;-50
2021/05/24 12:14:33;;;;;;;2.37;1.20;;;20.30;99.90;;;;;;5095396;28;20174;-46
2021/05/24 12:17:00;;;;;;;1.83;1.13;;;20.50;99.90;;;;;;5095547;28;20268;-47
2021/05/24 12:19:26;;;;;;;1.70;1.10;;;20.50;99.90;;;;;;5093105;28;20171;-47
2021/05/24 12:21:56;;;;;;;1.20;1.10;;;20.50;99.90;;;;;;5095497;28;20182;-51
2021/05/24 12:24:21;;;;;;;0.93;0.80;;;20.70;99.90;;;;;;5095776;28;20174;-57
2021/05/24 12:26:56;;;;;;;1.17;0.90;;;20.90;99.90;;;;;;5094324;28;20199;-52
2021/05/24 12:29:27;;;;;;;1.67;1.00;;;20.90;99.90;;;;;;5089216;28;20288;-53
2021/05/24 12:31:56;;;;;;;2.72;1.27;;;20.80;99.90;;;;;;5092641;28;20174;-48
2021/05/24 12:34:43;;;;;;;2.30;1.30;;;20.70;99.90;;;;;;5081628;28;20166;-47
2021/05/24 12:37:13;;;;;;;2.40;1.10;;;20.50;99.90;;;;;;5096045;28;20228;-49
2021/05/24 12:39:45;;;;;;;2.07;1.10;;;20.50;99.90;;;;;;5095375;28;20552;-48
2021/05/24 12:42:12;;;;;;;2.55;1.00;;;20.30;99.90;;;;;;5092947;28;20576;-56
2021/05/24 12:44:38;;;;;;;1.57;1.10;;;20.20;99.90;;;;;;5091384;28;20178;-55
2021/05/24 12:47:16;;;;;;;2.00;1.00;;;20.20;99.90;;;;;;5094359;28;20212;-49
2021/05/24 12:49:46;;;;;;;1.37;1.03;;;20.10;99.90;;;;;;5095260;28;20200;-50
2021/05/24 12:52:11;;;;;;;3.47;1.37;;;20.10;99.90;;;;;;5094982;28;20178;-47
2021/05/24 12:54:51;;;;;;;1.40;1.10;;;20.20;99.90;;;;;;5095053;28;20235;-47